Time;durP1;ratioP1;P1;durP2;ratioP2;P2;SDS_P1;SDS_P2;PMS_P1;PMS_P2;Temp;Humidity;BMP_temperature;BMP_pressure;BME280_temperature;BME280_humidity;BME280_pressure;Samples;Min_cycle;Max_cycle;Signal;HPM_P1;HPM_P2
2022/11/15 00:00:11;;;;;;;20.87;12.93;;;;;;;;;;5112697;28;20235;-81
2022/11/15 00:02:38;;;;;;;21.47;13.30;;;;;;;;;;5112630;28;20756;-81
2022/11/15 00:05:05;;;;;;;24.00;13.73;;;;;;;;;;5112231;28;20202;-82
2022/11/15 00:07:31;;;;;;;21.00;13.33;;;;;;;;;;5112635;28;20207;-81
2022/11/15 00:09:58;;;;;;;20.80;14.03;;;;;;;;;;5112332;28;20207;-81
2022/11/15 00:12:25;;;;;;;26.40;14.30;;;;;;;;;;5112521;28;20199;-81
2022/11/15 00:14:52;;;;;;;22.23;13.27;;;;;;;;;;5112751;28;20249;-81
2022/11/15 00:17:20;;;;;;;19.40;14.20;;;;;;;;;;5112446;28;20200;-81
2022/11/15 00:19:47;;;;;;;24.20;15.07;;;;;;;;;;5111903;28;20740;-83
2022/11/15 00:22:13;;;;;;;22.50;13.93;;;;;;;;;;5112528;28;20231;-81
2022/11/15 00:24:40;;;;;;;25.13;14.30;;;;;;;;;;5110926;28;20692;-81
2022/11/15 00:27:07;;;;;;;24.07;13.40;;;;;;;;;;5112274;28;20203;-81
2022/11/15 00:29:34;;;;;;;23.77;16.07;;;;;;;;;;5112142;28;20689;-81
2022/11/15 00:32:00;;;;;;;20.87;14.03;;;;;;;;;;5112094;28;20200;-81
2022/11/15 00:34:28;;;;;;;22.40;14.30;;;;;;;;;;5111478;28;20203;-81
2022/11/15 00:36:55;;;;;;;20.87;13.07;;;;;;;;;;5112515;28;20594;-81
2022/11/15 00:39:22;;;;;;;22.13;14.57;;;;;;;;;;5112064;28;20615;-81
2022/11/15 00:41:49;;;;;;;28.77;15.00;;;;;;;;;;5110151;28;20226;-81
2022/11/15 00:44:16;;;;;;;23.57;13.47;;;;;;;;;;5099571;28;20199;-82
2022/11/15 00:46:42;;;;;;;19.20;13.00;;;;;;;;;;5112044;28;20212;-84
2022/11/15 00:49:09;;;;;;;24.23;14.23;;;;;;;;;;5112279;28;20202;-81
2022/11/15 00:51:37;;;;;;;23.20;13.27;;;;;;;;;;5111708;28;20211;-81
2022/11/15 00:54:04;;;;;;;28.27;15.77;;;;;;;;;;5111671;28;20203;-82
2022/11/15 00:56:31;;;;;;;23.50;13.20;;;;;;;;;;5111778;28;20195;-81
2022/11/15 00:58:58;;;;;;;23.20;13.50;;;;;;;;;;5111572;28;20678;-81
2022/11/15 01:01:25;;;;;;;19.10;11.63;;;;;;;;;;5111012;28;20241;-81
2022/11/15 01:03:51;;;;;;;21.90;12.87;;;;;;;;;;5111731;28;20207;-81
2022/11/15 01:06:18;;;;;;;25.70;13.57;;;;;;;;;;5111262;28;20203;-81
2022/11/15 01:08:46;;;;;;;21.97;13.57;;;;;;;;;;5111936;28;20616;-81
2022/11/15 01:11:13;;;;;;;24.03;13.27;;;;;;;;;;5111049;28;20199;-81
2022/11/15 01:13:40;;;;;;;28.07;13.53;;;;;;;;;;5111621;28;20211;-81
2022/11/15 01:16:08;;;;;;;22.90;12.57;;;;;;;;;;5110851;28;20762;-81
2022/11/15 01:18:35;;;;;;;21.27;13.10;;;;;;;;;;5111601;28;20196;-80
2022/11/15 01:21:06;;;;;;;20.13;12.10;;;;;;;;;;5111117;28;20223;-80
2022/11/15 01:23:33;;;;;;;18.63;13.33;;;;;;;;;;5111228;28;20214;-81
2022/11/15 01:26:01;;;;;;;18.53;13.27;;;;;;;;;;5111054;28;20631;-81
2022/11/15 01:28:31;;;;;;;24.30;13.40;;;;;;;;;;5110869;28;20192;-81
2022/11/15 01:30:59;;;;;;;23.80;14.30;;;;;;;;;;5110913;28;20689;-81
2022/11/15 01:33:26;;;;;;;21.63;12.80;;;;;;;;;;5111179;28;20574;-80
2022/11/15 01:35:52;;;;;;;24.07;13.57;;;;;;;;;;5110560;28;20203;-80
2022/11/15 01:38:20;;;;;;;20.23;12.40;;;;;;;;;;5111048;28;20200;-80
2022/11/15 01:40:47;;;;;;;20.43;12.03;;;;;;;;;;5110840;28;20256;-81
2022/11/15 01:43:23;;;;;;;19.00;13.20;;;;;;;;;;5110570;28;20597;-81
2022/11/15 01:45:52;;;;;;;20.00;12.33;;;;;;;;;;5097765;28;20199;-80
2022/11/15 01:48:19;;;;;;;19.93;13.10;;;;;;;;;;5110974;28;20188;-81
2022/11/15 01:50:45;;;;;;;20.40;12.60;;;;;;;;;;5110798;28;20713;-81
2022/11/15 01:53:12;;;;;;;21.13;13.27;;;;;;;;;;5110972;28;20202;-81
2022/11/15 01:55:39;;;;;;;20.07;11.93;;;;;;;;;;5110319;28;20203;-81
2022/11/15 01:58:06;;;;;;;23.93;13.20;;;;;;;;;;5110919;28;20195;-81
2022/11/15 02:00:35;;;;;;;21.67;13.77;;;;;;;;;;5110225;28;20280;-80
2022/11/15 02:03:02;;;;;;;24.27;12.73;;;;;;;;;;5111094;28;20635;-81
2022/11/15 02:05:30;;;;;;;24.50;13.53;;;;;;;;;;5110638;28;20597;-81
2022/11/15 02:07:57;;;;;;;19.00;13.27;;;;;;;;;;5110993;28;20248;-81
2022/11/15 02:10:25;;;;;;;20.67;13.57;;;;;;;;;;5110438;28;20207;-81
2022/11/15 02:12:52;;;;;;;21.73;13.87;;;;;;;;;;5110960;28;20678;-81
2022/11/15 02:15:19;;;;;;;28.40;14.00;;;;;;;;;;5111083;28;20207;-81
2022/11/15 02:18:09;;;;;;;17.90;12.30;;;;;;;;;;5111011;28;20199;-80
2022/11/15 02:20:53;;;;;;;21.60;13.30;;;;;;;;;;5110340;28;20761;-82
2022/11/15 02:23:58;;;;;;;20.30;13.10;;;;;;;;;;5101799;28;20204;-77
2022/11/15 02:26:44;;;;;;;20.23;13.03;;;;;;;;;;5093562;28;20260;-77
2022/11/15 02:29:13;;;;;;;22.80;12.70;;;;;;;;;;5110195;28;20207;-77
2022/11/15 02:31:48;;;;;;;19.40;12.97;;;;;;;;;;5109792;28;20234;-77
2022/11/15 02:34:22;;;;;;;19.10;12.90;;;;;;;;;;5110600;28;20206;-77
2022/11/15 02:36:55;;;;;;;22.37;12.00;;;;;;;;;;5109937;28;20203;-79
2022/11/15 02:39:28;;;;;;;22.43;13.17;;;;;;;;;;5110286;28;20218;-79
2022/11/15 02:42:00;;;;;;;27.70;17.93;;;;;;;;;;5109985;28;20490;-79
2022/11/15 02:44:30;;;;;;;22.93;14.13;;;;;;;;;;5110155;28;20211;-79
2022/11/15 02:47:16;;;;;;;25.77;14.20;;;;;;;;;;5111242;28;20199;-79
2022/11/15 02:49:46;;;;;;;22.57;15.03;;;;;;;;;;5113683;28;20203;-79
2022/11/15 02:52:16;;;;;;;22.77;13.27;;;;;;;;;;5113795;28;20598;-79
2022/11/15 02:54:43;;;;;;;37.33;22.63;;;;;;;;;;5113730;28;20286;-79
2022/11/15 02:57:15;;;;;;;20.40;13.90;;;;;;;;;;5114177;28;20207;-79
2022/11/15 03:00:08;;;;;;;20.60;14.57;;;;;;;;;;5113483;28;20203;-79
2022/11/15 03:02:45;;;;;;;17.90;12.53;;;;;;;;;;5113421;28;20222;-79
2022/11/15 03:05:19;;;;;;;16.53;12.03;;;;;;;;;;5113885;28;20195;-78
2022/11/15 03:07:53;;;;;;;16.13;12.37;;;;;;;;;;5113510;28;20198;-79
2022/11/15 03:10:24;;;;;;;17.93;11.90;;;;;;;;;;5113708;28;20207;-78
2022/11/15 03:12:56;;;;;;;18.50;12.80;;;;;;;;;;5113348;28;20584;-79
2022/11/15 03:15:29;;;;;;;19.53;13.20;;;;;;;;;;5113657;28;20218;-78
2022/11/15 03:18:01;;;;;;;18.63;13.40;;;;;;;;;;5113635;28;20210;-79
2022/11/15 03:20:28;;;;;;;16.90;11.97;;;;;;;;;;5113208;28;20203;-79
2022/11/15 03:22:57;;;;;;;18.03;10.87;;;;;;;;;;5113459;28;20613;-79
2022/11/15 03:25:26;;;;;;;22.10;13.30;;;;;;;;;;5112889;28;20626;-81
2022/11/15 03:27:55;;;;;;;17.83;11.97;;;;;;;;;;5113712;28;20204;-79
2022/11/15 03:30:22;;;;;;;17.33;11.87;;;;;;;;;;5113295;28;20200;-78
2022/11/15 03:32:52;;;;;;;18.67;12.53;;;;;;;;;;5113710;28;20623;-81
2022/11/15 03:35:22;;;;;;;17.50;11.27;;;;;;;;;;5112812;28;20206;-79
2022/11/15 03:37:51;;;;;;;17.83;12.93;;;;;;;;;;5113104;28;20196;-79
2022/11/15 03:40:21;;;;;;;18.70;13.10;;;;;;;;;;5112734;28;20202;-79
2022/11/15 03:42:50;;;;;;;22.30;14.57;;;;;;;;;;5112992;28;20223;-79
2022/11/15 03:45:20;;;;;;;22.97;15.23;;;;;;;;;;5113466;28;20200;-79
2022/11/15 03:47:50;;;;;;;20.77;14.90;;;;;;;;;;5113186;28;20211;-79
2022/11/15 03:50:21;;;;;;;18.63;13.13;;;;;;;;;;5112150;28;20211;-79
2022/11/15 03:52:48;;;;;;;19.93;14.23;;;;;;;;;;5113171;28;20203;-79
2022/11/15 03:55:19;;;;;;;18.93;13.67;;;;;;;;;;5112551;28;20756;-79
2022/11/15 03:57:48;;;;;;;21.13;13.37;;;;;;;;;;5112819;28;20693;-79
2022/11/15 04:00:16;;;;;;;18.07;12.07;;;;;;;;;;5112936;28;20231;-79
2022/11/15 04:02:42;;;;;;;18.87;13.27;;;;;;;;;;5112234;28;20223;-79
2022/11/15 04:05:09;;;;;;;20.93;13.40;;;;;;;;;;5112846;28;20214;-78
2022/11/15 04:07:37;;;;;;;23.07;13.80;;;;;;;;;;5112670;28;20203;-79
2022/11/15 04:10:06;;;;;;;18.30;13.17;;;;;;;;;;5104656;28;20197;-77
2022/11/15 04:12:33;;;;;;;21.83;13.30;;;;;;;;;;5103059;28;20199;-77
2022/11/15 04:15:10;;;;;;;18.30;13.23;;;;;;;;;;5112045;28;20214;-79
2022/11/15 04:17:39;;;;;;;20.27;13.50;;;;;;;;;;5112722;28;20203;-80
2022/11/15 04:25:39;;;;;;;23.47;14.10;;;;;;;;;;5111048;28;20280;-81
2022/11/15 04:28:06;;;;;;;33.53;19.60;;;;;;;;;;5111740;28;20264;-80
2022/11/15 04:30:32;;;;;;;18.00;13.33;;;;;;;;;;5111017;28;20195;-81
2022/11/15 04:32:59;;;;;;;17.93;13.47;;;;;;;;;;5111480;28;20204;-81
2022/11/15 04:35:26;;;;;;;22.20;14.90;;;;;;;;;;5111176;28;20724;-81
2022/11/15 04:37:54;;;;;;;42.07;27.60;;;;;;;;;;5112188;28;20218;-80
2022/11/15 04:40:21;;;;;;;30.80;17.80;;;;;;;;;;5111383;28;20715;-80
2022/11/15 04:42:48;;;;;;;16.43;11.80;;;;;;;;;;5111834;28;20697;-81
2022/11/15 04:45:15;;;;;;;18.40;13.80;;;;;;;;;;5111894;28;20199;-80
2022/11/15 04:47:44;;;;;;;22.50;16.83;;;;;;;;;;5111739;28;20199;-80
2022/11/15 04:50:13;;;;;;;25.33;21.57;;;;;;;;;;5108540;28;20198;-81
2022/11/15 04:52:40;;;;;;;25.53;17.90;;;;;;;;;;5110551;28;20235;-80
2022/11/15 04:55:09;;;;;;;31.73;20.83;;;;;;;;;;5110871;28;20627;-80
2022/11/15 04:57:36;;;;;;;97.23;57.33;;;;;;;;;;5111388;28;20192;-80
2022/11/15 05:00:03;;;;;;;83.50;47.60;;;;;;;;;;5108265;28;20223;-80
2022/11/15 05:04:18;;;;;;;31.70;20.77;;;;;;;;;;5110841;28;20222;-80
2022/11/15 05:05:16;;;;;;;25.17;16.97;;;;;;;;;;5110735;28;20200;-81
2022/11/15 05:07:43;;;;;;;40.50;29.27;;;;;;;;;;5111242;28;20635;-80
2022/11/15 05:10:11;;;;;;;28.97;19.80;;;;;;;;;;5110732;28;20199;-80
2022/11/15 05:12:38;;;;;;;22.10;15.13;;;;;;;;;;5111369;28;20210;-80
2022/11/15 05:15:05;;;;;;;25.87;15.73;;;;;;;;;;5111012;28;20204;-79
2022/11/15 05:17:32;;;;;;;25.77;16.83;;;;;;;;;;5111699;28;20200;-79
2022/11/15 05:19:59;;;;;;;20.73;14.03;;;;;;;;;;5111390;28;20219;-80
2022/11/15 05:22:26;;;;;;;68.63;38.07;;;;;;;;;;5110987;28;20605;-80
2022/11/15 05:24:53;;;;;;;35.63;20.23;;;;;;;;;;5111264;28;20196;-80
2022/11/15 05:27:21;;;;;;;19.13;13.73;;;;;;;;;;5111660;28;20595;-80
2022/11/15 05:29:47;;;;;;;15.63;12.07;;;;;;;;;;5110850;28;20214;-80
2022/11/15 05:32:14;;;;;;;20.10;14.03;;;;;;;;;;5111039;28;20195;-80
2022/11/15 05:34:41;;;;;;;16.57;11.73;;;;;;;;;;5110784;28;20204;-80
2022/11/15 05:37:08;;;;;;;20.23;14.03;;;;;;;;;;5111020;28;20215;-80
2022/11/15 05:39:35;;;;;;;19.53;13.90;;;;;;;;;;5110896;28;20248;-80
2022/11/15 05:42:04;;;;;;;28.97;21.00;;;;;;;;;;5110941;28;20644;-81
2022/11/15 05:44:32;;;;;;;32.90;27.47;;;;;;;;;;5110797;28;20207;-80
2022/11/15 05:46:59;;;;;;;32.83;25.60;;;;;;;;;;5110599;28;20199;-80
2022/11/15 05:49:28;;;;;;;21.80;16.17;;;;;;;;;;5111315;28;20214;-80
2022/11/15 05:51:55;;;;;;;16.23;12.13;;;;;;;;;;5110789;28;20206;-81
2022/11/15 05:54:22;;;;;;;16.10;12.63;;;;;;;;;;5110646;28;20195;-80
2022/11/15 05:56:49;;;;;;;20.10;14.80;;;;;;;;;;5110951;28;20204;-80
2022/11/15 05:59:16;;;;;;;24.23;15.83;;;;;;;;;;5110902;28;20199;-80
2022/11/15 06:01:45;;;;;;;24.13;17.47;;;;;;;;;;5110435;28;20231;-80
2022/11/15 06:04:11;;;;;;;24.27;17.67;;;;;;;;;;5111000;28;20206;-81
2022/11/15 06:06:38;;;;;;;20.57;16.20;;;;;;;;;;5110987;28;20210;-80
2022/11/15 06:09:05;;;;;;;18.53;13.50;;;;;;;;;;5110413;28;20207;-81
2022/11/15 06:11:32;;;;;;;20.70;13.47;;;;;;;;;;5110665;28;20195;-80
2022/11/15 06:13:58;;;;;;;18.37;12.73;;;;;;;;;;5110638;28;20203;-80
2022/11/15 06:16:25;;;;;;;18.37;12.90;;;;;;;;;;5110416;28;20206;-80
2022/11/15 06:18:54;;;;;;;20.07;12.33;;;;;;;;;;5110877;28;20203;-80
2022/11/15 06:21:22;;;;;;;16.43;12.70;;;;;;;;;;5110156;28;20195;-80
2022/11/15 06:23:49;;;;;;;18.70;13.23;;;;;;;;;;5114678;28;20735;-80
2022/11/15 06:26:15;;;;;;;20.77;13.93;;;;;;;;;;5114746;28;20195;-81
2022/11/15 06:28:42;;;;;;;21.87;11.97;;;;;;;;;;5114240;28;20750;-80
2022/11/15 06:31:11;;;;;;;21.73;12.83;;;;;;;;;;5114888;28;20586;-80
2022/11/15 06:33:38;;;;;;;22.10;13.40;;;;;;;;;;5114614;28;20697;-80
2022/11/15 06:36:09;;;;;;;20.30;14.30;;;;;;;;;;5114506;28;20196;-81
2022/11/15 06:38:36;;;;;;;21.13;13.60;;;;;;;;;;5114419;28;20202;-80
2022/11/15 06:41:04;;;;;;;22.07;13.70;;;;;;;;;;5114148;28;20200;-81
2022/11/15 06:43:32;;;;;;;21.90;13.13;;;;;;;;;;5114030;28;20223;-81
2022/11/15 06:45:59;;;;;;;22.40;14.13;;;;;;;;;;5114522;28;20722;-80
2022/11/15 06:48:25;;;;;;;24.87;14.50;;;;;;;;;;5114020;28;20306;-80
2022/11/15 06:50:53;;;;;;;24.40;14.37;;;;;;;;;;5114286;28;20199;-80
2022/11/15 06:53:21;;;;;;;20.10;13.73;;;;;;;;;;5114260;28;20207;-80
2022/11/15 06:55:48;;;;;;;25.47;14.07;;;;;;;;;;5113320;28;20203;-80
2022/11/15 06:58:14;;;;;;;20.87;14.40;;;;;;;;;;5114202;28;20207;-80
2022/11/15 07:00:41;;;;;;;24.67;14.03;;;;;;;;;;5113922;28;20234;-80
2022/11/15 07:03:08;;;;;;;25.30;15.43;;;;;;;;;;5113739;28;20231;-80
2022/11/15 07:05:35;;;;;;;24.70;14.73;;;;;;;;;;5113705;28;20305;-80
2022/11/15 07:08:03;;;;;;;24.47;14.77;;;;;;;;;;5114324;28;20210;-80
2022/11/15 07:10:31;;;;;;;26.43;17.63;;;;;;;;;;5113435;28;20203;-81
2022/11/15 07:12:58;;;;;;;23.13;16.63;;;;;;;;;;5114365;28;20195;-80
2022/11/15 07:15:26;;;;;;;23.40;13.73;;;;;;;;;;5113457;28;20203;-80
2022/11/15 07:17:53;;;;;;;25.23;14.03;;;;;;;;;;5113596;28;20207;-80
2022/11/15 07:20:20;;;;;;;22.20;13.30;;;;;;;;;;5113692;28;20195;-80
2022/11/15 07:22:47;;;;;;;19.37;13.97;;;;;;;;;;5113339;28;20223;-81
2022/11/15 07:25:13;;;;;;;27.87;15.33;;;;;;;;;;5113484;28;20207;-80
2022/11/15 07:27:41;;;;;;;23.33;14.97;;;;;;;;;;5113438;28;20204;-80
2022/11/15 07:30:09;;;;;;;23.60;15.53;;;;;;;;;;5113413;28;20207;-81
2022/11/15 07:32:36;;;;;;;25.53;15.43;;;;;;;;;;5113430;28;20207;-80
2022/11/15 07:35:03;;;;;;;24.30;15.00;;;;;;;;;;5113546;28;20196;-81
2022/11/15 07:37:30;;;;;;;25.37;14.77;;;;;;;;;;5113065;28;20195;-80
2022/11/15 07:39:57;;;;;;;25.83;14.50;;;;;;;;;;5113440;28;20651;-80
2022/11/15 07:45:12;;;;;;;27.50;16.77;;;;;;;;;;5113000;28;20594;-81
2022/11/15 07:47:38;;;;;;;29.53;16.53;;;;;;;;;;5113234;28;20203;-81
2022/11/15 07:50:06;;;;;;;31.40;19.60;;;;;;;;;;5113048;28;20203;-81
2022/11/15 07:52:33;;;;;;;33.33;21.20;;;;;;;;;;5099021;28;20678;-82
2022/11/15 07:54:59;;;;;;;28.80;17.67;;;;;;;;;;5113240;28;20226;-80
2022/11/15 07:57:26;;;;;;;30.50;16.27;;;;;;;;;;5112711;28;20206;-79
2022/11/15 07:59:53;;;;;;;23.10;14.80;;;;;;;;;;5112680;28;20211;-80
2022/11/15 08:02:21;;;;;;;26.10;17.50;;;;;;;;;;5112669;28;20290;-81
2022/11/15 08:04:48;;;;;;;26.53;16.73;;;;;;;;;;5112723;28;20203;-80
2022/11/15 08:07:15;;;;;;;19.87;14.57;;;;;;;;;;5112571;28;20206;-80
2022/11/15 08:09:42;;;;;;;24.77;15.77;;;;;;;;;;5112668;28;20678;-80
2022/11/15 08:12:09;;;;;;;22.10;13.13;;;;;;;;;;5112761;28;20214;-80
2022/11/15 08:14:36;;;;;;;24.40;14.50;;;;;;;;;;5112514;28;20567;-81
2022/11/15 08:17:03;;;;;;;20.60;14.37;;;;;;;;;;5112500;28;20200;-81
2022/11/15 08:19:31;;;;;;;24.93;14.73;;;;;;;;;;5112614;28;20203;-81
2022/11/15 08:21:57;;;;;;;24.73;14.00;;;;;;;;;;5112941;28;20203;-80
2022/11/15 08:24:24;;;;;;;25.17;15.43;;;;;;;;;;5112363;28;20231;-80
2022/11/15 08:26:51;;;;;;;26.97;15.33;;;;;;;;;;5112097;28;20199;-80
2022/11/15 08:29:18;;;;;;;25.70;15.50;;;;;;;;;;5112197;28;20727;-80
2022/11/15 08:31:45;;;;;;;23.30;15.43;;;;;;;;;;5112088;28;20211;-80
2022/11/15 08:34:12;;;;;;;25.43;14.60;;;;;;;;;;5112061;28;20210;-80
2022/11/15 08:36:40;;;;;;;25.53;13.83;;;;;;;;;;5112000;28;20196;-80
2022/11/15 08:39:07;;;;;;;25.70;15.23;;;;;;;;;;5112411;28;20206;-80
2022/11/15 08:41:36;;;;;;;27.67;15.83;;;;;;;;;;5112125;28;20195;-80
2022/11/15 08:44:03;;;;;;;22.57;14.33;;;;;;;;;;5097780;28;20258;-81
2022/11/15 08:46:30;;;;;;;21.17;14.50;;;;;;;;;;5111573;28;20207;-80
2022/11/15 08:48:56;;;;;;;25.83;14.03;;;;;;;;;;5112215;28;20196;-80
2022/11/15 08:51:23;;;;;;;22.33;14.17;;;;;;;;;;5111703;28;20195;-80
2022/11/15 08:53:52;;;;;;;22.27;15.27;;;;;;;;;;5112042;28;20203;-80
2022/11/15 08:56:18;;;;;;;21.77;14.60;;;;;;;;;;5111539;28;20199;-80
2022/11/15 08:58:46;;;;;;;23.07;15.73;;;;;;;;;;5111378;28;20199;-81
2022/11/15 09:01:18;;;;;;;25.97;15.53;;;;;;;;;;5111542;28;20242;-80
2022/11/15 09:03:45;;;;;;;27.07;17.00;;;;;;;;;;5111601;28;20250;-81
2022/11/15 09:06:11;;;;;;;28.73;18.07;;;;;;;;;;5111651;28;20203;-80
2022/11/15 09:08:39;;;;;;;29.93;17.73;;;;;;;;;;5111704;28;20204;-81
2022/11/15 09:11:08;;;;;;;22.93;15.70;;;;;;;;;;5111569;28;20195;-80
2022/11/15 09:13:36;;;;;;;22.33;16.33;;;;;;;;;;5111316;28;20211;-80
2022/11/15 09:16:05;;;;;;;25.27;15.40;;;;;;;;;;5111179;28;20202;-80
2022/11/15 09:18:32;;;;;;;25.20;15.63;;;;;;;;;;5111560;28;20199;-80
2022/11/15 09:21:00;;;;;;;27.07;16.57;;;;;;;;;;5111117;28;20204;-80
2022/11/15 09:23:27;;;;;;;26.50;15.33;;;;;;;;;;5111449;28;20242;-80
2022/11/15 09:25:59;;;;;;;26.70;16.93;;;;;;;;;;5110812;28;20203;-80
2022/11/15 09:28:27;;;;;;;25.30;17.10;;;;;;;;;;5111146;28;20689;-80
2022/11/15 09:30:57;;;;;;;30.30;19.77;;;;;;;;;;5110948;28;20203;-80
2022/11/15 09:33:24;;;;;;;23.53;17.10;;;;;;;;;;5097607;28;20624;-80
2022/11/15 09:35:51;;;;;;;25.67;18.70;;;;;;;;;;5110908;28;20231;-80
2022/11/15 09:38:18;;;;;;;26.67;17.23;;;;;;;;;;5111053;28;20188;-81
2022/11/15 09:40:46;;;;;;;26.07;17.73;;;;;;;;;;5110604;28;20202;-80
2022/11/15 09:43:28;;;;;;;36.77;25.07;;;;;;;;;;5111081;28;20222;-80
2022/11/15 09:46:05;;;;;;;33.50;22.13;;;;;;;;;;5110914;28;20200;-80
2022/11/15 09:48:42;;;;;;;23.20;14.87;;;;;;;;;;5111078;28;20620;-80
2022/11/15 09:51:15;;;;;;;27.97;14.37;;;;;;;;;;5111029;28;20214;-80
2022/11/15 09:53:47;;;;;;;29.43;17.53;;;;;;;;;;5110499;28;20203;-81
2022/11/15 09:56:18;;;;;;;22.60;14.90;;;;;;;;;;5110649;28;20199;-80
2022/11/15 09:58:54;;;;;;;23.70;16.10;;;;;;;;;;5109841;28;20693;-80
2022/11/15 10:01:27;;;;;;;27.07;17.00;;;;;;;;;;5098903;28;20447;-81
2022/11/15 10:03:56;;;;;;;26.07;16.10;;;;;;;;;;5110894;28;20227;-80
2022/11/15 10:06:24;;;;;;;26.57;17.33;;;;;;;;;;5110320;28;20195;-80
2022/11/15 10:08:57;;;;;;;29.53;18.57;;;;;;;;;;5111028;28;20256;-80
2022/11/15 10:11:25;;;;;;;24.97;14.33;;;;;;;;;;5110611;28;20200;-79
2022/11/15 10:13:58;;;;;;;18.50;13.53;;;;;;;;;;5110684;28;20237;-80
2022/11/15 10:16:43;;;;;;;22.37;16.03;;;;;;;;;;5110621;28;20252;-80
2022/11/15 10:19:15;;;;;;;23.47;18.23;;;;;;;;;;5110685;28;20203;-80
2022/11/15 10:21:52;;;;;;;26.07;14.63;;;;;;;;;;5110885;28;20205;-80
2022/11/15 10:24:21;;;;;;;25.83;16.27;;;;;;;;;;5109871;28;20222;-80
2022/11/15 10:26:48;;;;;;;23.50;14.93;;;;;;;;;;5110849;28;20200;-80
2022/11/15 10:29:21;;;;;;;19.17;13.13;;;;;;;;;;5110524;28;20570;-81
2022/11/15 10:31:48;;;;;;;22.67;15.23;;;;;;;;;;5110597;28;20237;-80
2022/11/15 10:34:16;;;;;;;20.10;14.00;;;;;;;;;;5110389;28;20215;-80
2022/11/15 10:36:45;;;;;;;24.03;16.03;;;;;;;;;;5110277;28;20214;-80
2022/11/15 10:39:15;;;;;;;23.60;17.87;;;;;;;;;;5110817;28;20207;-81
2022/11/15 10:41:44;;;;;;;22.93;16.47;;;;;;;;;;5110342;28;20199;-81
2022/11/15 10:44:31;;;;;;;21.90;15.63;;;;;;;;;;5110157;28;20235;-81
2022/11/15 10:47:24;;;;;;;22.43;16.00;;;;;;;;;;5110342;28;20199;-80
2022/11/15 10:50:00;;;;;;;55.77;35.63;;;;;;;;;;5110623;28;20212;-80
2022/11/15 10:52:27;;;;;;;92.37;52.43;;;;;;;;;;5110501;28;20195;-80
2022/11/15 10:54:57;;;;;;;32.60;22.90;;;;;;;;;;5109922;28;20204;-79
2022/11/15 10:57:27;;;;;;;31.53;22.07;;;;;;;;;;5110360;28;20207;-80
2022/11/15 10:59:57;;;;;;;28.97;19.47;;;;;;;;;;5109979;28;20203;-80
2022/11/15 11:02:33;;;;;;;28.77;20.23;;;;;;;;;;5110232;28;20199;-80
2022/11/15 11:05:00;;;;;;;26.40;18.57;;;;;;;;;;5110169;28;20234;-80
2022/11/15 11:07:29;;;;;;;26.10;18.97;;;;;;;;;;5110451;28;20215;-80
2022/11/15 11:10:02;;;;;;;25.90;18.77;;;;;;;;;;5113829;28;20206;-80
2022/11/15 11:12:32;;;;;;;25.83;19.23;;;;;;;;;;5113875;28;20206;-80
2022/11/15 11:15:02;;;;;;;25.00;17.27;;;;;;;;;;5113981;28;20260;-80
2022/11/15 11:17:35;;;;;;;24.60;17.27;;;;;;;;;;5113992;28;20211;-80
2022/11/15 11:20:05;;;;;;;24.63;16.30;;;;;;;;;;5113707;28;20589;-80
2022/11/15 11:22:37;;;;;;;23.53;17.43;;;;;;;;;;5095588;28;20299;-81
2022/11/15 11:25:12;;;;;;;23.20;17.43;;;;;;;;;;5113449;28;20736;-80
2022/11/15 11:27:44;;;;;;;23.87;17.13;;;;;;;;;;5113706;28;20199;-80
2022/11/15 11:30:17;;;;;;;25.67;17.83;;;;;;;;;;5113735;28;20260;-81
2022/11/15 11:33:06;;;;;;;27.33;16.80;;;;;;;;;;5113450;28;20234;-80
2022/11/15 11:35:36;;;;;;;26.40;17.67;;;;;;;;;;5113267;28;20195;-80
2022/11/15 11:38:17;;;;;;;28.07;18.77;;;;;;;;;;5113474;28;20200;-80
2022/11/15 11:40:45;;;;;;;24.40;15.43;;;;;;;;;;5113340;28;20285;-80
2022/11/15 11:43:19;;;;;;;25.23;17.73;;;;;;;;;;5113590;28;20256;-80
2022/11/15 11:46:02;;;;;;;29.73;19.77;;;;;;;;;;5112831;28;20710;-80
2022/11/15 11:48:41;;;;;;;24.93;18.23;;;;;;;;;;5113627;28;20199;-80
2022/11/15 11:51:14;;;;;;;26.23;17.20;;;;;;;;;;5113291;28;20195;-80
2022/11/15 11:53:46;;;;;;;24.80;16.77;;;;;;;;;;5113341;28;20560;-80
2022/11/15 11:56:19;;;;;;;29.70;22.63;;;;;;;;;;5112511;28;21077;-81
2022/11/15 11:58:47;;;;;;;25.60;17.33;;;;;;;;;;5112986;28;20599;-80
2022/11/15 12:01:17;;;;;;;27.80;17.67;;;;;;;;;;5113009;28;20231;-80
2022/11/15 12:03:47;;;;;;;21.73;16.23;;;;;;;;;;5112780;28;20204;-81
2022/11/15 12:06:22;;;;;;;30.00;17.93;;;;;;;;;;5112318;28;20199;-80
2022/11/15 12:08:53;;;;;;;21.93;15.43;;;;;;;;;;5113194;28;20210;-81
2022/11/15 12:11:24;;;;;;;24.63;17.17;;;;;;;;;;5112718;28;20678;-80
2022/11/15 12:13:56;;;;;;;25.37;18.17;;;;;;;;;;5113066;28;20207;-80
2022/11/15 12:16:28;;;;;;;27.10;17.20;;;;;;;;;;5112578;28;20214;-80
2022/11/15 12:18:57;;;;;;;26.47;18.43;;;;;;;;;;5112142;28;20200;-80
2022/11/15 12:21:34;;;;;;;26.97;18.50;;;;;;;;;;5112350;28;20203;-80
2022/11/15 12:24:05;;;;;;;22.67;16.93;;;;;;;;;;5112719;28;20215;-80
2022/11/15 12:26:36;;;;;;;26.97;16.90;;;;;;;;;;5112241;28;20211;-80
2022/11/15 12:29:05;;;;;;;27.67;19.03;;;;;;;;;;5112630;28;20214;-80
2022/11/15 12:31:38;;;;;;;29.80;19.27;;;;;;;;;;5112036;28;20199;-80
2022/11/15 12:34:13;;;;;;;23.77;17.43;;;;;;;;;;5112613;28;20202;-80
2022/11/15 12:36:42;;;;;;;32.37;21.33;;;;;;;;;;5112383;28;20210;-80
2022/11/15 12:39:09;;;;;;;32.80;21.20;;;;;;;;;;5112067;28;20195;-80
2022/11/15 12:41:37;;;;;;;30.37;20.43;;;;;;;;;;5111979;28;20565;-80
2022/11/15 12:44:05;;;;;;;51.43;30.97;;;;;;;;;;5097863;28;20219;-80
2022/11/15 12:47:02;;;;;;;67.20;36.73;;;;;;;;;;5111759;28;20579;-80
2022/11/15 12:49:48;;;;;;;36.53;26.30;;;;;;;;;;5100665;28;20203;-80
2022/11/15 12:52:15;;;;;;;63.10;37.10;;;;;;;;;;5111586;28;20199;-80
2022/11/15 12:55:33;;;;;;;60.13;39.10;;;;;;;;;;5112304;28;20207;-80
2022/11/15 12:58:25;;;;;;;56.77;36.57;;;;;;;;;;5086259;28;20230;-80
2022/11/15 13:00:52;;;;;;;35.23;27.77;;;;;;;;;;5111372;28;20235;-80
2022/11/15 13:03:44;;;;;;;39.57;27.70;;;;;;;;;;5111864;28;20592;-80
2022/11/15 13:06:38;;;;;;;41.33;26.73;;;;;;;;;;5109432;28;20196;-80
2022/11/15 13:09:04;;;;;;;29.23;20.53;;;;;;;;;;5111192;28;20733;-80
2022/11/15 13:11:48;;;;;;;22.87;16.63;;;;;;;;;;5111569;28;20202;-80
2022/11/15 13:14:46;;;;;;;30.10;20.90;;;;;;;;;;5111705;28;20212;-81
2022/11/15 13:17:32;;;;;;;38.30;22.33;;;;;;;;;;5110093;28;20234;-81
2022/11/15 13:20:10;;;;;;;49.53;39.53;;;;;;;;;;5098969;28;20207;-80
2022/11/15 13:22:54;;;;;;;37.23;29.17;;;;;;;;;;5111226;28;20286;-80
2022/11/15 13:25:39;;;;;;;31.47;24.60;;;;;;;;;;5111293;28;20223;-80
2022/11/15 13:28:12;;;;;;;51.40;37.03;;;;;;;;;;5111222;28;20210;-80
2022/11/15 13:30:39;;;;;;;44.33;31.90;;;;;;;;;;5110651;28;20203;-80
2022/11/15 13:33:10;;;;;;;59.30;37.60;;;;;;;;;;5111064;28;20681;-80
2022/11/15 13:35:41;;;;;;;30.87;22.43;;;;;;;;;;5111535;28;20686;-80
2022/11/15 13:38:13;;;;;;;33.53;24.23;;;;;;;;;;5110617;28;20191;-80
2022/11/15 13:40:40;;;;;;;56.87;37.37;;;;;;;;;;5111174;28;20203;-80
2022/11/15 13:43:32;;;;;;;48.17;31.27;;;;;;;;;;5111288;28;20210;-80
2022/11/15 13:46:07;;;;;;;43.53;26.33;;;;;;;;;;5098530;28;20227;-80
2022/11/15 13:48:34;;;;;;;40.93;28.23;;;;;;;;;;5110702;28;20195;-80
2022/11/15 13:51:06;;;;;;;49.17;32.93;;;;;;;;;;5110965;28;20340;-79
2022/11/15 13:53:34;;;;;;;46.43;31.00;;;;;;;;;;5111218;28;20200;-80
2022/11/15 13:56:03;;;;;;;54.37;33.63;;;;;;;;;;5110833;28;20199;-80
2022/11/15 13:58:30;;;;;;;37.17;24.50;;;;;;;;;;5110609;28;20200;-80
2022/11/15 14:01:01;;;;;;;36.37;22.70;;;;;;;;;;5110558;28;20223;-81
2022/11/15 14:03:29;;;;;;;37.97;25.73;;;;;;;;;;5110881;28;20207;-80
2022/11/15 14:06:12;;;;;;;37.20;25.57;;;;;;;;;;5110328;28;20724;-80
2022/11/15 14:08:39;;;;;;;30.00;22.77;;;;;;;;;;5111230;28;20253;-80
2022/11/15 14:11:09;;;;;;;30.17;21.07;;;;;;;;;;5110615;28;20639;-80
2022/11/15 14:13:36;;;;;;;28.97;20.93;;;;;;;;;;5110782;28;20195;-80
2022/11/15 14:16:23;;;;;;;35.23;25.93;;;;;;;;;;5110536;28;20235;-80
2022/11/15 14:18:52;;;;;;;40.07;30.77;;;;;;;;;;5104087;28;20288;-80
2022/11/15 14:21:21;;;;;;;31.90;24.20;;;;;;;;;;5110611;28;20260;-80
2022/11/15 14:23:48;;;;;;;34.63;22.47;;;;;;;;;;5110856;28;20276;-81
2022/11/15 14:26:29;;;;;;;37.00;21.57;;;;;;;;;;5110148;28;20219;-80
2022/11/15 14:28:56;;;;;;;33.33;22.33;;;;;;;;;;5110551;28;20260;-80
2022/11/15 14:31:23;;;;;;;35.03;22.63;;;;;;;;;;5110297;28;20667;-80
2022/11/15 14:33:50;;;;;;;32.00;23.37;;;;;;;;;;5111020;28;20202;-81
2022/11/15 14:36:18;;;;;;;41.43;27.77;;;;;;;;;;5110594;28;20206;-80
2022/11/15 14:38:46;;;;;;;31.50;21.77;;;;;;;;;;5110068;28;20204;-80
2022/11/15 14:41:19;;;;;;;43.37;30.13;;;;;;;;;;5110501;28;20227;-80